createdAt,value
2023-02-02T00:01:15.855Z,-2.28
2023-02-02T00:03:43.042Z,-2.25
2023-02-02T00:06:10.549Z,-2.28
2023-02-02T00:08:38.366Z,-2.37
2023-02-02T00:11:06.514Z,-2.68
2023-02-02T00:13:33.604Z,-2.36
2023-02-02T00:16:26.263Z,-2.37
2023-02-02T00:18:54.505Z,-2.37
2023-02-02T00:21:21.611Z,-2.41
2023-02-02T00:23:48.692Z,-2.33
2023-02-02T00:26:16.595Z,-2.45
2023-02-02T00:28:43.706Z,-2.39
2023-02-02T00:31:10.973Z,-2.33
2023-02-02T00:33:38.363Z,-2.43
2023-02-02T00:36:05.791Z,-2.31
2023-02-02T00:38:32.769Z,-2.36
2023-02-02T00:40:59.724Z,-2.59
2023-02-02T00:43:26.819Z,-2.37
2023-02-02T00:45:54.189Z,-2.35
2023-02-02T00:48:22.386Z,-2.39
2023-02-02T00:50:49.450Z,-2.63
2023-02-02T00:53:16.606Z,-2.55
2023-02-02T00:55:43.876Z,-2.53
2023-02-02T00:58:11.047Z,-2.55
2023-02-02T01:00:38.166Z,-2.71
2023-02-02T01:03:06.225Z,-2.64
2023-02-02T01:05:36.609Z,-2.66
2023-02-02T01:08:03.752Z,-2.80
2023-02-02T01:10:30.838Z,-2.68
2023-02-02T01:12:57.878Z,-2.71
2023-02-02T01:15:25.465Z,-2.74
2023-02-02T01:17:56.414Z,-2.74
2023-02-02T01:23:27.629Z,-2.89
2023-02-02T01:25:56.727Z,-2.80
2023-02-02T01:28:24.564Z,-2.85
2023-02-02T01:30:52.446Z,-2.82
2023-02-02T01:33:19.958Z,-2.80
2023-02-02T01:35:48.700Z,-2.77
2023-02-02T01:38:17.090Z,-2.79
2023-02-02T01:40:58.121Z,-2.96
2023-02-02T01:43:30.444Z,-2.78
2023-02-02T01:45:58.939Z,-2.83
2023-02-02T01:48:32.763Z,-2.78
2023-02-02T01:51:04.605Z,-2.78
2023-02-02T01:53:32.791Z,-2.94
2023-02-02T01:56:01.257Z,-2.71
2023-02-02T01:58:35.707Z,-2.70
2023-02-02T02:01:02.805Z,-2.69
2023-02-02T02:03:33.350Z,-2.93
2023-02-02T02:06:17.307Z,-2.75
2023-02-02T02:08:55.985Z,-2.65
2023-02-02T02:11:24.244Z,-2.73
2023-02-02T02:14:14.134Z,-2.78
2023-02-02T02:17:26.007Z,-2.67
2023-02-02T02:20:31.641Z,-2.71
2023-02-02T02:23:55.243Z,-2.70
2023-02-02T02:26:54.759Z,-2.94
2023-02-02T02:30:00.594Z,-2.75
2023-02-02T02:32:52.528Z,-2.75
2023-02-02T02:35:40.569Z,-2.74
2023-02-02T02:38:23.271Z,-2.72
2023-02-02T02:41:05.180Z,-2.77
2023-02-02T02:43:42.112Z,-2.92
2023-02-02T02:46:10.590Z,-3.04
2023-02-02T02:48:37.829Z,-2.68
2023-02-02T02:51:54.498Z,-2.81
2023-02-02T02:54:32.953Z,-2.70
2023-02-02T02:57:25.594Z,-2.69
2023-02-02T02:59:55.735Z,-2.65
2023-02-02T03:02:43.043Z,-2.62
2023-02-02T03:05:34.301Z,-2.67
2023-02-02T03:08:15.546Z,-2.65
2023-02-02T03:10:46.215Z,-2.67
2023-02-02T03:13:15.790Z,-2.69
2023-02-02T03:15:44.738Z,-2.67
2023-02-02T03:18:17.603Z,-2.64
2023-02-02T03:20:46.198Z,-2.76
2023-02-02T03:23:14.495Z,-2.62
2023-02-02T03:25:42.094Z,-2.51
2023-02-02T03:28:09.644Z,-2.58
2023-02-02T03:30:38.285Z,-2.79
2023-02-02T03:33:05.975Z,-2.54
2023-02-02T03:35:33.133Z,-2.53
2023-02-02T03:38:00.193Z,-2.53
2023-02-02T03:40:28.743Z,-2.50
2023-02-02T03:42:56.502Z,-2.77
2023-02-02T03:45:27.011Z,-2.63
2023-02-02T03:47:54.512Z,-2.66
2023-02-02T03:50:21.517Z,-2.56
2023-02-02T03:52:48.570Z,-2.70
2023-02-02T03:55:15.580Z,-2.62
2023-02-02T03:57:42.638Z,-2.62
2023-02-02T04:00:10.596Z,-2.82
2023-02-02T04:02:40.767Z,-2.91
2023-02-02T04:05:08.358Z,-2.65
2023-02-02T04:07:35.375Z,-2.65
2023-02-02T04:10:03.122Z,-2.84
2023-02-02T04:12:30.699Z,-2.83
2023-02-02T04:14:57.864Z,-2.89
2023-02-02T04:17:24.985Z,-3.26
2023-02-02T04:19:58.236Z,-2.90
2023-02-02T04:22:26.108Z,-2.81
2023-02-02T04:24:53.490Z,-2.81
2023-02-02T04:27:20.586Z,-2.84
2023-02-02T04:29:47.709Z,-2.82
2023-02-02T04:32:16.347Z,-2.85
2023-02-02T04:34:43.854Z,-2.89
2023-02-02T04:37:11.851Z,-2.97
2023-02-02T04:39:38.932Z,-2.90
2023-02-02T04:42:06.102Z,-2.93
2023-02-02T04:44:33.395Z,-2.96
2023-02-02T04:47:00.577Z,-3.24
2023-02-02T04:49:27.746Z,-3.22
2023-02-02T04:51:54.822Z,-2.93
2023-02-02T04:54:22.217Z,-3.01
2023-02-02T04:56:49.439Z,-2.98
2023-02-02T04:59:16.440Z,-3.14
2023-02-02T05:01:43.608Z,-3.18
2023-02-02T05:04:11.917Z,-2.97
2023-02-02T05:06:39.181Z,-2.95
2023-02-02T05:09:06.182Z,-3.07
2023-02-02T05:11:33.219Z,-3.05
2023-02-02T05:14:00.360Z,-3.01
2023-02-02T05:16:29.130Z,-2.97
2023-02-02T05:18:57.436Z,-2.97
2023-02-02T05:21:24.956Z,-3.11
2023-02-02T05:23:52.031Z,-2.97
2023-02-02T05:26:25.109Z,-3.22
2023-02-02T05:28:52.368Z,-3.08
2023-02-02T05:31:20.578Z,-3.06
2023-02-02T05:33:47.677Z,-3.06
2023-02-02T05:36:15.004Z,-3.02
2023-02-02T05:38:42.214Z,-3.07
2023-02-02T05:41:09.473Z,-3.17
2023-02-02T05:43:37.313Z,-2.96
2023-02-02T05:46:05.498Z,-3.17
2023-02-02T05:48:33.486Z,-3.21
2023-02-02T05:51:13.606Z,-3.07
2023-02-02T05:53:41.831Z,-3.16
2023-02-02T05:56:10.199Z,-3.02
2023-02-02T05:58:38.060Z,-3.21
2023-02-02T06:01:08.106Z,-2.97
2023-02-02T06:03:36.516Z,-3.13
2023-02-02T06:06:06.937Z,-3.07
2023-02-02T06:08:35.662Z,-2.98
2023-02-02T06:11:11.833Z,-3.19
2023-02-02T06:13:40.084Z,-2.91
2023-02-02T06:16:08.768Z,-2.99
2023-02-02T06:18:37.817Z,-2.91
2023-02-02T06:21:07.343Z,-2.81
2023-02-02T06:23:36.183Z,-2.77
2023-02-02T06:26:04.847Z,-3.02
2023-02-02T06:28:33.457Z,-2.78
2023-02-02T06:31:06.647Z,-2.74
2023-02-02T06:33:35.332Z,-2.64
2023-02-02T06:36:05.953Z,-2.57
2023-02-02T06:38:34.320Z,-2.63
2023-02-02T06:41:03.605Z,-2.51
2023-02-02T06:43:33.677Z,-2.45
2023-02-02T06:46:01.798Z,-2.70
2023-02-02T06:48:29.862Z,-2.45
2023-02-02T06:51:01.442Z,-2.45
2023-02-02T06:53:29.455Z,-2.45
2023-02-02T06:55:59.408Z,-2.45
2023-02-02T06:58:28.616Z,-2.38
2023-02-02T07:00:56.597Z,-2.33
2023-02-02T07:03:24.689Z,-2.28
2023-02-02T07:05:52.612Z,-2.23
2023-02-02T07:08:20.738Z,-2.19
2023-02-02T07:11:11.978Z,-2.12
2023-02-02T07:13:36.898Z,-2.26
2023-02-02T07:16:06.382Z,-2.13
2023-02-02T07:18:34.385Z,-2.11
2023-02-02T07:21:02.433Z,-2.16
2023-02-02T07:23:30.939Z,-1.95
2023-02-02T07:26:05.929Z,-1.90
2023-02-02T07:28:34.539Z,-2.08
2023-02-02T07:31:14.317Z,-2.13
2023-02-02T07:33:43.959Z,-2.03
2023-02-02T07:36:13.680Z,-2.06
2023-02-02T07:38:41.604Z,-2.40
2023-02-02T07:41:09.601Z,-2.18
2023-02-02T07:43:37.810Z,-2.26
2023-02-02T07:46:08.749Z,-2.16
2023-02-02T07:48:40.186Z,-2.06
2023-02-02T07:51:10.468Z,-1.94
2023-02-02T07:53:38.604Z,-2.00
2023-02-02T07:56:16.658Z,-2.15
2023-02-02T07:58:44.541Z,-2.10
2023-02-02T08:01:14.013Z,-2.05
2023-02-02T08:03:43.051Z,-1.96
2023-02-02T08:06:15.547Z,-1.90
2023-02-02T08:08:42.859Z,-1.87
2023-02-02T08:11:12.139Z,-1.91
2023-02-02T08:13:40.068Z,-2.14
2023-02-02T08:16:07.999Z,-1.94
2023-02-02T08:18:35.920Z,-1.95
2023-02-02T08:21:04.820Z,-1.93
2023-02-02T08:23:31.969Z,-1.87
2023-02-02T08:26:18.188Z,-1.96
2023-02-02T08:28:48.133Z,-1.99
2023-02-02T08:31:29.999Z,-2.20
2023-02-02T08:33:58.759Z,-2.06
2023-02-02T08:36:28.584Z,-1.84
2023-02-02T08:38:55.833Z,-1.68
2023-02-02T08:41:24.193Z,-1.61
2023-02-02T08:43:51.619Z,-1.75
2023-02-02T08:46:20.585Z,-1.45
2023-02-02T08:48:48.581Z,-1.43
2023-02-02T08:51:19.214Z,-1.40
2023-02-02T08:53:46.863Z,-1.43
2023-02-02T08:56:19.133Z,-1.55
2023-02-02T08:59:05.445Z,-1.53
2023-02-02T09:01:33.962Z,-1.50
2023-02-02T09:04:04.720Z,-1.37
2023-02-02T09:06:37.491Z,-1.39
2023-02-02T09:09:08.268Z,-1.28
2023-02-02T09:11:36.199Z,-1.32
2023-02-02T09:14:06.495Z,-1.44
2023-02-02T09:16:34.788Z,-0.98
2023-02-02T09:19:02.480Z,-0.96
2023-02-02T09:21:29.750Z,-1.00
2023-02-02T09:23:56.889Z,-0.84
2023-02-02T09:26:26.906Z,-0.88
2023-02-02T09:29:03.073Z,-0.79
2023-02-02T09:31:33.221Z,-0.76
2023-02-02T09:34:02.383Z,-0.84
2023-02-02T09:36:29.948Z,-0.88
2023-02-02T09:38:57.020Z,-1.11
2023-02-02T09:41:32.917Z,-0.90
2023-02-02T09:44:42.049Z,-0.86
2023-02-02T09:47:34.900Z,-0.90
2023-02-02T09:50:16.397Z,-0.97
2023-02-02T09:52:58.361Z,-0.92
2023-02-02T09:55:35.183Z,-0.96
2023-02-02T09:58:08.172Z,-1.92
2023-02-02T10:00:40.047Z,-1.27
2023-02-02T10:03:29.568Z,-1.21
2023-02-02T10:06:18.686Z,-1.22
2023-02-02T10:08:59.595Z,-1.25
2023-02-02T10:11:33.740Z,-1.40
2023-02-02T10:14:07.884Z,-1.25
2023-02-02T10:16:36.658Z,-1.03
2023-02-02T10:19:06.314Z,-1.07
2023-02-02T10:21:43.735Z,-1.11
2023-02-02T10:24:21.123Z,-1.08
2023-02-02T10:26:55.248Z,-1.05
2023-02-02T10:29:22.194Z,-0.84
2023-02-02T10:32:27.579Z,-0.61
2023-02-02T10:35:29.800Z,-0.54
2023-02-02T10:37:57.155Z,-0.46
2023-02-02T10:40:54.810Z,-0.50
2023-02-02T10:43:45.929Z,-0.56
2023-02-02T10:46:20.575Z,-0.49
2023-02-02T10:48:49.209Z,-0.41
2023-02-02T10:51:20.453Z,-0.38
2023-02-02T10:53:52.378Z,-0.46
2023-02-02T10:56:48.869Z,-0.41
2023-02-02T10:59:19.291Z,-0.40
2023-02-02T11:01:46.133Z,-0.25
2023-02-02T11:04:31.621Z,-0.21
2023-02-02T11:07:01.390Z,-0.23
2023-02-02T11:09:32.909Z,-0.23
2023-02-02T11:12:30.773Z,-0.30
2023-02-02T11:15:05.426Z,-0.29
2023-02-02T11:17:33.559Z,-0.45
2023-02-02T11:20:01.152Z,-0.49
2023-02-02T11:22:39.469Z,-0.40
2023-02-02T11:25:22.481Z,-0.34
2023-02-02T11:27:49.972Z,-0.53
2023-02-02T11:30:38.626Z,-0.35
2023-02-02T11:33:20.898Z,-0.42
2023-02-02T11:36:03.349Z,-0.42
2023-02-02T11:38:31.024Z,-0.47
2023-02-02T11:41:02.443Z,-0.46
2023-02-02T11:43:48.366Z,-0.49
2023-02-02T11:46:22.123Z,-0.44
2023-02-02T11:49:16.678Z,-0.42
2023-02-02T11:51:44.955Z,-0.60
2023-02-02T11:54:29.415Z,-0.50
2023-02-02T11:56:59.751Z,-0.51
2023-02-02T11:59:37.080Z,-0.54
2023-02-02T12:02:13.682Z,-0.65
2023-02-02T12:04:41.379Z,-1.01
2023-02-02T12:07:38.515Z,-0.69
2023-02-02T12:10:26.975Z,-0.94
2023-02-02T12:13:04.140Z,-0.88
2023-02-02T12:15:34.248Z,-0.81
2023-02-02T12:18:18.407Z,-1.23
2023-02-02T12:21:18.359Z,-0.65
2023-02-02T12:24:08.562Z,-0.60
2023-02-02T12:26:37.811Z,-0.72
2023-02-02T12:29:29.540Z,-0.64
2023-02-02T12:32:27.089Z,-0.70
2023-02-02T12:35:29.424Z,-0.67
2023-02-02T12:38:18.807Z,-0.68
2023-02-02T12:40:45.931Z,-0.72
2023-02-02T12:43:45.816Z,-0.65
2023-02-02T12:46:45.169Z,-0.58
2023-02-02T12:49:33.779Z,-0.66
2023-02-02T12:52:17.021Z,-0.98
2023-02-02T12:55:05.764Z,-0.84
2023-02-02T12:57:39.744Z,-0.79
2023-02-02T13:00:27.691Z,-0.84
2023-02-02T13:03:15.174Z,-0.94
2023-02-02T13:06:12.979Z,-0.96
2023-02-02T13:08:55.219Z,-1.29
2023-02-02T13:11:51.934Z,-0.96
2023-02-02T13:14:33.054Z,-1.02
2023-02-02T13:17:12.029Z,-1.09
2023-02-02T13:19:54.564Z,-1.15
2023-02-02T13:22:29.269Z,-1.20
2023-02-02T13:25:01.627Z,-1.29
2023-02-02T13:27:31.621Z,-1.23
2023-02-02T13:30:31.031Z,-1.25
2023-02-02T13:33:25.296Z,-1.47
2023-02-02T13:36:00.579Z,-1.37
2023-02-02T13:38:39.419Z,-1.33
2023-02-02T13:41:10.294Z,-1.36
2023-02-02T13:43:47.187Z,-1.25
2023-02-02T13:46:26.286Z,-1.25
2023-02-02T13:49:13.484Z,-1.25
2023-02-02T13:52:11.058Z,-1.24
2023-02-02T13:55:07.525Z,-1.30
2023-02-02T13:58:17.409Z,-1.34
2023-02-02T14:00:56.832Z,-1.51
2023-02-02T14:03:38.541Z,-1.32
2023-02-02T14:06:13.543Z,-1.33
2023-02-02T14:08:56.965Z,-1.34
2023-02-02T14:11:36.054Z,-1.35
2023-02-02T14:14:33.615Z,-1.46
2023-02-02T14:17:23.411Z,-1.54
2023-02-02T14:19:55.633Z,-1.97
2023-02-02T14:22:41.462Z,-1.50
2023-02-02T14:25:30.185Z,-1.46
2023-02-02T14:28:02.097Z,-1.58
2023-02-02T14:30:38.775Z,-1.48
2023-02-02T14:33:21.249Z,-1.51
2023-02-02T14:35:48.425Z,-1.56
2023-02-02T14:38:29.996Z,-1.66
2023-02-02T14:41:04.819Z,-1.53
2023-02-02T14:43:49.925Z,-1.52
2023-02-02T14:46:39.802Z,-1.52
2023-02-02T14:49:10.608Z,-1.50
2023-02-02T14:51:48.830Z,-1.47
2023-02-02T14:54:33.826Z,-1.68
2023-02-02T14:57:23.587Z,-1.69
2023-02-02T14:59:52.119Z,-1.72
2023-02-02T15:02:23.938Z,-1.78
2023-02-02T15:04:51.314Z,-1.54
2023-02-02T15:07:24.873Z,-1.54
2023-02-02T15:09:56.722Z,-1.51
2023-02-02T15:12:44.903Z,-1.53
2023-02-02T15:15:29.818Z,-1.77
2023-02-02T15:18:38.179Z,-1.55
2023-02-02T15:21:17.358Z,-1.55
2023-02-02T15:23:46.919Z,-1.62
2023-02-02T15:26:25.456Z,-1.58
2023-02-02T15:29:01.719Z,-1.61
2023-02-02T15:31:51.567Z,-1.65
2023-02-02T15:34:37.783Z,-1.61
2023-02-02T15:37:08.238Z,-1.58
2023-02-02T15:39:41.963Z,-1.59
2023-02-02T15:42:48.609Z,-1.58
2023-02-02T15:45:43.472Z,-1.56
2023-02-02T15:48:22.456Z,-1.60
2023-02-02T15:50:54.838Z,-1.61
2023-02-02T15:53:28.887Z,-1.61
2023-02-02T15:55:58.003Z,-1.65
2023-02-02T15:58:33.201Z,-1.66
2023-02-02T16:01:15.801Z,-1.70
2023-02-02T16:03:45.678Z,-1.65
2023-02-02T16:06:12.824Z,-1.66
2023-02-02T16:08:41.197Z,-1.69
2023-02-02T16:11:15.576Z,-1.72
2023-02-02T16:13:54.819Z,-2.07
2023-02-02T16:16:25.483Z,-1.70
2023-02-02T16:19:10.949Z,-1.71
2023-02-02T16:25:26.621Z,-2.07
2023-02-02T16:27:54.101Z,-1.79
2023-02-02T16:30:29.251Z,-2.07
2023-02-02T16:32:56.683Z,-1.80
2023-02-02T16:35:44.081Z,-1.80
2023-02-02T16:38:33.275Z,-1.91
2023-02-02T16:41:12.270Z,-1.89
2023-02-02T16:43:42.021Z,-1.76
2023-02-02T16:46:17.573Z,-1.81
2023-02-02T16:48:55.705Z,-1.98
2023-02-02T16:51:34.120Z,-1.84
2023-02-02T16:54:07.441Z,-1.88
2023-02-02T16:56:46.377Z,-2.06
2023-02-02T16:59:30.306Z,-1.96
2023-02-02T17:02:38.516Z,-1.85
2023-02-02T17:05:29.381Z,-1.93
2023-02-02T17:07:58.644Z,-1.86
2023-02-02T17:10:32.256Z,-1.82
2023-02-02T17:13:00.355Z,-1.84
2023-02-02T17:15:34.513Z,-1.92
2023-02-02T17:18:03.701Z,-2.08
2023-02-02T17:20:31.258Z,-2.12
2023-02-02T17:23:07.114Z,-1.97
2023-02-02T17:25:42.510Z,-1.91
2023-02-02T17:28:16.111Z,-2.31
2023-02-02T17:30:49.549Z,-1.95
2023-02-02T17:33:19.436Z,-2.14
2023-02-02T17:35:54.753Z,-1.98
2023-02-02T17:38:24.522Z,-1.93
2023-02-02T17:40:53.071Z,-2.02
2023-02-02T17:43:21.972Z,-2.38
2023-02-02T17:45:49.544Z,-2.05
2023-02-02T17:48:16.834Z,-2.05
2023-02-02T17:50:44.118Z,-2.17
2023-02-02T17:53:16.962Z,-2.11
2023-02-02T17:55:45.555Z,-2.19
2023-02-02T17:58:17.283Z,-2.05
2023-02-02T18:00:51.920Z,-2.29
2023-02-02T18:03:34.249Z,-2.27
2023-02-02T18:06:02.292Z,-2.20
2023-02-02T18:08:30.673Z,-2.45
2023-02-02T18:10:58.565Z,-2.26
2023-02-02T18:13:26.165Z,-2.16
2023-02-02T18:15:55.345Z,-2.21
2023-02-02T18:18:23.243Z,-1.99
2023-02-02T18:20:51.082Z,-2.14
2023-02-02T18:23:19.320Z,-2.19
2023-02-02T18:25:46.828Z,-2.12
2023-02-02T18:28:17.336Z,-2.46
2023-02-02T18:30:46.804Z,-2.11
2023-02-02T18:33:19.929Z,-2.16
2023-02-02T18:35:48.365Z,-2.23
2023-02-02T18:38:15.810Z,-2.22
2023-02-02T18:40:43.170Z,-2.41
2023-02-02T18:43:10.265Z,-2.27
2023-02-02T18:45:38.076Z,-2.76
2023-02-02T18:48:05.135Z,-2.34
2023-02-02T18:50:32.187Z,-2.44
2023-02-02T18:52:59.378Z,-2.25
2023-02-02T18:55:26.947Z,-2.30
2023-02-02T18:57:54.276Z,-2.41
2023-02-02T19:00:22.238Z,-2.28
2023-02-02T19:02:49.518Z,-2.29
2023-02-02T19:05:35.550Z,-2.40
2023-02-02T19:08:04.177Z,-2.22
2023-02-02T19:10:31.587Z,-2.46
2023-02-02T19:13:02.336Z,-2.52
2023-02-02T19:15:37.245Z,-2.48
2023-02-02T19:18:15.630Z,-2.59
2023-02-02T19:20:43.110Z,-2.45
2023-02-02T19:23:23.451Z,-2.49
2023-02-02T19:25:51.758Z,-2.53
2023-02-02T19:28:23.574Z,-2.57
2023-02-02T19:30:53.699Z,-2.80
2023-02-02T19:33:21.692Z,-2.56
2023-02-02T19:35:55.397Z,-2.59
2023-02-02T19:38:27.486Z,-2.64
2023-02-02T19:40:57.295Z,-2.77
2023-02-02T19:43:29.427Z,-2.86
2023-02-02T19:45:59.961Z,-2.68
2023-02-02T19:48:31.436Z,-2.96
2023-02-02T19:50:59.625Z,-2.90
2023-02-02T19:53:41.643Z,-3.01
2023-02-02T19:56:27.112Z,-2.77
2023-02-02T19:58:54.673Z,-3.02
2023-02-02T20:01:25.722Z,-2.82
2023-02-02T20:03:53.407Z,-2.73
2023-02-02T20:06:24.243Z,-2.71
2023-02-02T20:08:51.267Z,-2.71
2023-02-02T20:11:38.473Z,-2.71
2023-02-02T20:14:30.767Z,-2.66
2023-02-02T20:17:03.046Z,-2.62
2023-02-02T20:19:36.297Z,-2.67
2023-02-02T20:22:16.063Z,-2.60
2023-02-02T20:24:44.640Z,-2.71
2023-02-02T20:27:20.193Z,-2.67
2023-02-02T20:29:50.075Z,-2.68
2023-02-02T20:32:30.472Z,-2.82
2023-02-02T20:34:59.544Z,-2.70
2023-02-02T20:37:29.494Z,-2.74
2023-02-02T20:40:21.293Z,-2.60
2023-02-02T20:42:49.351Z,-2.90
2023-02-02T20:45:17.863Z,-2.64
2023-02-02T20:47:49.568Z,-2.64
2023-02-02T20:50:20.347Z,-2.70
2023-02-02T20:52:48.283Z,-2.67
2023-02-02T20:55:15.313Z,-2.94
2023-02-02T20:57:42.523Z,-2.75
2023-02-02T21:00:12.707Z,-2.73
2023-02-02T21:02:39.677Z,-2.75
2023-02-02T21:05:07.096Z,-2.88
2023-02-02T21:07:34.074Z,-3.02
2023-02-02T21:10:01.154Z,-3.07
2023-02-02T21:12:28.193Z,-2.79
2023-02-02T21:14:55.286Z,-2.92
2023-02-02T21:17:23.124Z,-2.92
2023-02-02T21:19:50.203Z,-2.92
2023-02-02T21:22:17.281Z,-2.96
2023-02-02T21:24:44.326Z,-2.86
2023-02-02T21:27:11.502Z,-2.78
2023-02-02T21:29:38.641Z,-2.93
2023-02-02T21:32:05.881Z,-2.77
2023-02-02T21:34:33.359Z,-2.94
2023-02-02T21:37:00.533Z,-2.85
2023-02-02T21:39:35.124Z,-2.82
2023-02-02T21:42:08.039Z,-2.79
2023-02-02T21:44:41.296Z,-2.79
2023-02-02T21:47:33.976Z,-2.91
2023-02-02T21:50:18.490Z,-2.88
2023-02-02T21:53:08.429Z,-2.84
2023-02-02T21:59:16.615Z,-2.99
2023-02-02T22:01:45.209Z,-2.89
2023-02-02T22:04:16.996Z,-2.92
2023-02-02T22:06:46.656Z,-2.92
2023-02-02T22:09:13.591Z,-2.90
2023-02-02T22:11:47.293Z,-2.83
2023-02-02T22:14:23.552Z,-2.85
2023-02-02T22:16:57.890Z,-2.92
2023-02-02T22:19:35.298Z,-2.82
2023-02-02T22:22:11.464Z,-2.79
2023-02-02T22:24:41.320Z,-2.82
2023-02-02T22:27:26.249Z,-2.84
2023-02-02T22:30:01.220Z,-2.77
2023-02-02T22:32:28.471Z,-2.74
2023-02-02T22:34:55.710Z,-2.75
2023-02-02T22:37:22.753Z,-2.72
2023-02-02T22:39:49.807Z,-2.88
2023-02-02T22:42:18.514Z,-2.74
2023-02-02T22:44:45.725Z,-2.70
2023-02-02T22:47:13.011Z,-2.97
2023-02-02T22:49:40.816Z,-2.79
2023-02-02T22:52:07.986Z,-2.80
2023-02-02T22:54:35.331Z,-2.73
2023-02-02T22:57:15.426Z,-2.79
2023-02-02T22:59:51.667Z,-2.97
2023-02-02T23:02:18.746Z,-2.81
2023-02-02T23:04:46.230Z,-2.84
2023-02-02T23:07:13.708Z,-2.87
2023-02-02T23:09:41.978Z,-2.75
2023-02-02T23:12:09.972Z,-2.84
2023-02-02T23:14:37.047Z,-2.78
2023-02-02T23:17:04.058Z,-2.79
2023-02-02T23:19:34.629Z,-2.84
2023-02-02T23:22:09.093Z,-2.75
2023-02-02T23:24:44.331Z,-2.85
2023-02-02T23:27:15.811Z,-2.84
2023-02-02T23:29:42.883Z,-2.72
2023-02-02T23:32:09.986Z,-2.80
2023-02-02T23:34:37.340Z,-2.85
2023-02-02T23:37:04.556Z,-2.66
2023-02-02T23:39:32.632Z,-2.68
2023-02-02T23:41:59.889Z,-2.62
2023-02-02T23:44:26.874Z,-2.81
2023-02-02T23:46:54.552Z,-2.62
2023-02-02T23:49:21.825Z,-2.72
2023-02-02T23:51:49.079Z,-2.89
2023-02-02T23:54:16.265Z,-3.02
2023-02-02T23:56:43.514Z,-2.65
2023-02-02T23:59:10.622Z,-2.82
